Grant, Oklahoma
Current Conditions -  °F | °C
As of 8:15 AM on Friday 19 Dec 2014 (Local Time) from KHHW Reporting Station
Haze Haze  
Wind Chill: 41°   Ceiling: 300
Heat Index: 46°   Visibility: 1mi
Dew Point: 44°   Wind: 8mph
Humidity: 93%   Direction: 70°ENE
Pressure: 30.19"   Gusts: NA
Location:  33.94°N, 95.51°W
Report Text: KHHW 191415Z AUTO 07007KT 1SM BR OVC003 08/07 A3019 RMK AO2 T00750065
Loading
Personal Weather Stations






























Interactive Weather Map New forecast layout! Learn more

10-Day Weather Forecast

Advertisements
Track Severe Weather on mobile